Latest Coastal Weather Observations for Onslow Airport

IDW60701

Issued at 10:15 am WST Saturday 19 April 2014 (issued every 10 minutes, with the page automatically refreshed every 10 minutes)

About coastal observations | Map of coastal stations | Coastal observations for WA | Marine services | Other Formats
Station Details ID: 005017 Name: ONSLOW AIRPORT Lat: -21.67 Lon: 115.11 Height: 10.5 m
Data from the previous 72 hours. | See also: Recent months at Onslow Airport
Date/Time
WST
Temp

°C
Wind Pressure Rain
since 9am
mm
Weather Cloud Vis
km
Sea
Height
m
Swell
Dir
 
Speed
knots
Gust
knots
hPa Trend Height
m
Period
s
Dir
19/10:00am 34.7 SSE 9 11 1014.6 - 0.0 - - - - - - -
19/09:30am 32.7 SSE 6 7 1014.9 - 0.0 - - - - - - -
19/09:00am 29.7 ESE 4 5 1014.9 - 0.0 - - - - - - -
19/08:30am 27.6 SE 4 5 1015.0 - 0.0 - - - - - - -
19/08:00am 25.3 S 4 6 1014.9 - 0.0 - - - - - - -
19/07:30am 23.6 S 5 6 1014.9 - 0.0 - - - - - - -
19/07:00am 21.1 SSE 6 6 1014.8 - 0.0 - - - - - - -
19/06:30am 20.7 SSE 6 7 1014.6 - 0.0 - - - - - - -
19/06:00am 20.9 SSE 6 7 1014.3 - 0.0 - - - - - - -
19/05:30am 20.7 SSE 7 8 1014.3 - 0.0 - - - - - - -
19/05:00am 20.6 SSE 8 9 1014.5 - 0.0 - - - - - - -
19/04:30am 20.8 SSE 6 6 1014.5 - 0.0 - - - - - - -
19/04:00am 21.2 S 7 7 1014.6 - 0.0 - - - - - - -
19/03:30am 21.7 S 6 7 1014.6 - 0.0 - - - - - - -
19/03:00am 22.3 S 7 8 1014.7 - 0.0 - - - - - - -
19/02:30am 22.9 S 5 6 1015.0 - 0.0 - - - - - - -
19/02:00am 23.1 S 6 7 1015.1 - 0.0 - - - - - - -
19/01:30am 23.2 SSW 5 6 1015.2 - 0.0 - - - - - - -
19/01:00am 23.5 SSW 5 5 1015.2 - 0.0 - - - - - - -
19/12:30am 24.1 SSW 7 8 1015.3 - 0.0 - - - - - - -
19/12:00am 24.0 SSW 7 9 1015.4 - 0.0 - - - - - - -
 
Date/Time
WST
Temp

°C
Wind Pressure Rain
since 9am
mm
Weather Cloud Vis
km
Sea
Height
m
Swell
Dir
 
Speed
knots
Gust
knots
hPa Trend Height
m
Period
s
Dir
18/11:30pm 24.6 WSW 4 5 1015.3 - 0.0 - - - - - - -
18/11:00pm 25.3 WSW 4 5 1015.5 - 0.0 - - - - - - -
18/10:30pm 25.7 WSW 4 5 1015.7 - 0.0 - - - - - - -
18/10:00pm 25.5 WSW 4 4 1015.7 - 0.0 - - - - - - -
18/09:30pm 25.7 SW 5 7 1015.8 - 0.0 - - - - - - -
18/09:00pm 25.3 SW 6 7 1015.5 - 0.0 - - - - - - -
18/08:30pm 26.4 WSW 7 8 1015.4 - 0.0 - - - - - - -
18/08:00pm 26.1 WSW 7 9 1015.2 - 0.0 - - - - - - -
18/07:30pm 26.8 W 7 8 1014.9 - 0.0 - - - - - - -
18/07:00pm 27.3 W 8 9 1014.5 - 0.0 - - - - - - -
18/06:30pm 28.0 W 7 9 1014.2 - 0.0 - - - - - - -
18/06:00pm 29.1 W 8 10 1013.8 - 0.0 - - - - - - -
18/05:30pm 30.6 WNW 9 10 1013.6 - 0.0 - - - - - - -
18/05:00pm 31.8 NW 9 11 1013.2 - 0.0 - - - - - - -
18/04:30pm 32.5 NW 9 12 1013.1 - 0.0 - - - - - - -
18/04:00pm 34.1 NNW 10 13 1012.9 - 0.0 - - - - - - -
18/03:30pm 35.2 NW 10 13 1012.9 - 0.0 - - - - - - -
18/03:00pm 34.9 NW 10 13 1012.9 - 0.0 - - - - - - -
18/02:30pm 34.7 WNW 10 14 1013.0 - 0.0 - - - - - - -
18/02:00pm 35.3 NW 9 13 1013.1 - 0.0 - - - - - - -
18/01:30pm 35.6 NW 7 10 1013.3 - 0.0 - - - - - - -
18/01:00pm 36.0 NNW 9 15 1013.8 - 0.0 - - - - - - -
18/12:30pm 36.3 N 6 9 1014.1 - 0.0 - - - - - - -
18/12:00pm 35.6 ENE 5 8 1014.3 - 0.0 - - - - - - -
18/11:30am 35.3 ENE 3 6 1014.8 - 0.0 - - - - - - -
18/11:00am 33.7 ESE 5 6 1015.1 - 0.0 - - - - - - -
18/10:30am 32.6 ESE 5 7 1015.5 - 0.0 - - - - - - -
18/10:00am 31.2 ENE 4 6 1015.7 - 0.0 - - - - - - -
18/09:30am 29.6 ENE 6 7 1015.7 - 0.0 - - - - - - -
18/09:00am 28.3 ENE 6 7 1015.6 - 0.0 - - - - - - -
18/08:30am 26.7 ENE 6 7 1015.7 - 0.0 - - - - - - -
18/08:00am 25.3 ENE 7 8 1015.5 - 0.0 - - - - - - -
18/07:30am 24.0 ENE 5 7 1015.1 - 0.0 - - - - - - -
18/07:00am 21.7 E 6 6 1014.7 - 0.0 - - - - - - -
18/06:30am 21.0 ESE 4 5 1014.6 - 0.0 - - - - - - -
18/06:00am 21.0 ESE 4 5 1014.3 - 0.0 - - - - - - -
18/05:30am 21.5 ESE 4 5 1014.4 - 0.0 - - - - - - -
18/05:00am 22.2 S 4 5 1014.3 - 0.0 - - - - - - -
18/04:30am 22.1 S 6 7 1014.3 - 0.0 - - - - - - -
18/04:00am 21.9 S 5 6 1014.2 - 0.0 - - - - - - -
18/03:30am 22.3 S 7 8 1014.4 - 0.0 - - - - - - -
18/03:00am 22.6 SSW 6 7 1014.4 - 0.0 - - - - - - -
18/02:30am 23.1 SSW 7 8 1014.6 - 0.0 - - - - - - -
18/02:00am 23.9 SSW 9 10 1014.9 - 0.0 - - - - - - -
18/01:30am 23.2 SSW 6 7 1015.0 - 0.0 - - - - - - -
18/01:00am 23.3 SSW 7 8 1015.3 - 0.0 - - - - - - -
18/12:30am 23.3 SW 7 8 1015.6 - 0.0 - - - - - - -
18/12:00am 23.3 SW 6 7 1015.7 - 0.0 - - - - - - -
 
Date/Time
WST
Temp

°C
Wind Pressure Rain
since 9am
mm
Weather Cloud Vis
km
Sea
Height
m
Swell
Dir
 
Speed
knots
Gust
knots
hPa Trend Height
m
Period
s
Dir
17/11:30pm 23.1 SW 7 8 1016.0 - 0.0 - - - - - - -
17/11:00pm 23.1 WSW 5 6 1016.0 - 0.0 - - - - - - -
17/10:30pm 24.4 WSW 7 7 1016.1 - 0.0 - - - - - - -
17/10:00pm 24.5 WSW 6 7 1016.0 - 0.0 - - - - - - -
17/09:30pm 24.8 SW 7 9 1015.9 - 0.0 - - - - - - -
17/09:00pm 25.4 WSW 7 8 1015.6 - 0.0 - - - - - - -
17/08:30pm 25.4 WSW 7 8 1015.6 - 0.0 - - - - - - -
17/08:00pm 26.4 WSW 7 8 1015.2 - 0.0 - - - - - - -
17/07:30pm 26.7 W 6 7 1014.8 - 0.0 - - - - - - -
17/07:00pm 27.2 WNW 5 6 1014.6 - 0.0 - - - - - - -
17/06:30pm 28.0 W 7 8 1014.4 - 0.0 - - - - - - -
17/06:00pm 29.4 W 9 11 1013.8 - 0.0 - - - - - - -
17/05:30pm 31.3 N 12 15 1013.2 - 0.0 - - - - - - -
17/05:00pm 32.4 N 12 15 1013.1 - 0.0 - - - - - - -
17/04:30pm 33.2 N 12 16 1012.9 - 0.0 - - - - - - -
17/04:00pm 33.7 NNW 13 16 1012.7 - 0.0 - - - - - - -
17/03:30pm 34.3 NNW 12 15 1012.7 - 0.0 - - - - - - -
17/03:00pm 34.6 NNW 11 16 1012.7 - 0.0 - - - - - - -
17/02:30pm 34.6 NW 11 15 1013.1 - 0.0 - - - - - - -
17/02:00pm 34.8 NW 11 16 1013.2 - 0.0 - - - - - - -
17/01:30pm 34.3 NW 11 15 1013.3 - 0.0 - - - - - - -
17/01:00pm 34.7 N 10 14 1013.6 - 0.0 - - - - - - -
17/12:30pm 35.2 N 7 13 1014.1 - 0.0 - - - - - - -
17/12:00pm 34.1 ENE 5 8 1014.6 - 0.0 - - - - - - -
17/11:30am 34.4 ENE 6 8 1015.2 - 0.0 - - - - - - -
17/11:00am 32.6 E 4 6 1015.6 - 0.0 - - - - - - -
17/10:30am 31.7 E 6 8 1016.0 - 0.0 - - - - - - -
17/10:00am 30.8 SE 6 8 1016.1 - 0.0 - - - - - - -
17/09:30am 29.6 E 7 9 1016.1 - 0.0 - - - - - - -
17/09:00am 28.0 E 8 9 1015.9 - 0.0 - - - - - - -
17/08:30am 26.5 E 9 11 1015.8 - 0.0 - - - - - - -
17/08:00am 25.0 E 7 9 1015.6 - 0.0 - - - - - - -
17/07:30am 23.4 E 6 7 1015.3 - 0.0 - - - - - - -
17/07:00am 21.9 E 6 7 1014.9 - 0.0 - - - - - - -
17/06:30am 21.6 E 4 5 1014.8 - 0.0 - - - - - - -
17/06:00am 21.1 S 4 6 1014.5 - 0.0 - - - - - - -
17/05:30am 21.9 SW 6 7 1014.4 - 0.0 - - - - - - -
17/05:00am 22.2 WSW 6 8 1014.2 - 0.0 - - - - - - -
17/04:30am 23.6 WSW 8 10 1014.1 - 0.0 - - - - - - -
17/04:00am 24.2 WSW 9 10 1014.2 - 0.0 - - - - - - -
17/03:30am 23.0 WSW 6 7 1014.3 - 0.0 - - - - - - -
17/03:00am 23.1 WSW 7 8 1014.3 - 0.0 - - - - - - -
17/02:30am 22.7 W 6 7 1014.7 - 0.0 - - - - - - -
17/02:00am 22.7 W 5 6 1014.7 - 0.0 - - - - - - -
17/01:30am 22.6 W 7 8 1014.7 - 0.0 - - - - - - -
17/01:00am 23.5 WSW 7 8 1014.8 - 0.0 - - - - - - -
17/12:30am 22.9 SW 6 7 1014.9 - 0.0 - - - - - - -
17/12:00am 23.7 SW 7 8 1015.0 - 0.0 - - - - - - -
 
Date/Time
WST
Temp

°C
Wind Pressure Rain
since 9am
mm
Weather Cloud Vis
km
Sea
Height
m
Swell
Dir
 
Speed
knots
Gust
knots
hPa Trend Height
m
Period
s
Dir
16/11:30pm 25.2 W 7 8 1015.3 - 0.0 - - - - - - -
16/11:00pm 24.6 W 6 7 1015.4 - 0.0 - - - - - - -
16/10:30pm 25.2 NW 6 7 1015.2 - 0.0 - - - - - - -
16/10:00pm 25.6 NNW 7 8 1015.1 - 0.0 - - - - - - -
16/09:30pm 25.6 NW 6 7 1015.1 - 0.0 - - - - - - -
16/09:00pm 26.0 NW 6 7 1015.1 - 0.0 - - - - - - -
16/08:30pm 26.1 WNW 6 7 1015.0 - 0.0 - - - - - - -
16/08:00pm 26.3 WNW 7 8 1014.6 - 0.0 - - - - - - -
16/07:30pm 26.2 W 6 8 1014.3 - 0.0 - - - - - - -
16/07:00pm 27.1 W 7 8 1013.9 - 0.0 - - - - - - -
16/06:30pm 27.7 W 7 9 1013.7 - 0.0 - - - - - - -
16/06:00pm 28.7 NW 9 12 1013.2 - 0.0 - - - - - - -
16/05:30pm 30.0 NNW 12 14 1012.7 - 0.0 - - - - - - -
16/05:00pm 31.2 N 13 17 1012.6 - 0.0 - - - - - - -
16/04:30pm 31.6 N 14 18 1012.4 - 0.0 - - - - - - -
16/04:00pm 32.2 N 14 18 1012.3 - 0.0 - - - - - - -
16/03:30pm 32.7 NNW 12 18 1012.3 - 0.0 - - - - - - -
16/03:00pm 33.0 NNW 15 17 1012.2 - 0.0 - - - - - - -
16/02:30pm 33.2 N 13 17 1012.5 - 0.0 - - - - - - -
16/02:00pm 34.0 N 13 17 1012.6 - 0.0 - - - - - - -
16/01:30pm 33.4 NNW 13 17 1013.0 - 0.0 - - - - - - -
16/01:00pm 34.3 N 13 19 1013.4 - 0.0 - - - - - - -
16/12:30pm 34.4 N 12 16 1013.9 - 0.0 - - - - - - -
16/12:00pm 34.5 NNE 11 15 1014.3 - 0.0 - - - - - - -
16/11:30am 34.2 NNE 13 17 1014.9 - 0.0 - - - - - - -
16/11:00am 34.4 NE 12 17 1015.5 - 0.0 - - - - - - -
16/10:30am 34.0 ENE 12 17 1015.8 - 0.0 - - - - - - -

Other Formats:

Comma delimited format used in spreadsheet applications
http://www.bom.gov.au/fwo/IDW60701/IDW60701.95305.axf

JavaScript Object Notation format (JSON) in row-major order
http://www.bom.gov.au/fwo/IDW60701/IDW60701.95305.json